sensor_id;sensor_type;location;lat;lon;timestamp;P1;durP1;ratioP1;P2;durP2;ratioP2
80195;SDS011;69516;42.050;21.516;2024-02-21T00:01:06;19.00;;;11.10;;
80195;SDS011;69516;42.050;21.516;2024-02-21T00:03:32;18.17;;;11.05;;
80195;SDS011;69516;42.050;21.516;2024-02-21T00:05:58;22.15;;;11.48;;
80195;SDS011;69516;42.050;21.516;2024-02-21T00:08:24;19.20;;;11.27;;
80195;SDS011;69516;42.050;21.516;2024-02-21T00:10:50;17.45;;;10.85;;
80195;SDS011;69516;42.050;21.516;2024-02-21T00:13:17;19.67;;;10.55;;
80195;SDS011;69516;42.050;21.516;2024-02-21T00:15:43;18.88;;;10.40;;
80195;SDS011;69516;42.050;21.516;2024-02-21T00:18:09;17.23;;;9.90;;
80195;SDS011;69516;42.050;21.516;2024-02-21T00:20:36;16.85;;;10.57;;
80195;SDS011;69516;42.050;21.516;2024-02-21T00:23:02;20.02;;;11.65;;
80195;SDS011;69516;42.050;21.516;2024-02-21T00:25:28;16.85;;;10.07;;
80195;SDS011;69516;42.050;21.516;2024-02-21T00:27:54;17.33;;;10.35;;
80195;SDS011;69516;42.050;21.516;2024-02-21T00:30:21;16.50;;;10.00;;
80195;SDS011;69516;42.050;21.516;2024-02-21T00:32:47;18.58;;;10.63;;
80195;SDS011;69516;42.050;21.516;2024-02-21T00:35:13;16.77;;;9.55;;
80195;SDS011;69516;42.050;21.516;2024-02-21T00:37:40;15.13;;;9.38;;
80195;SDS011;69516;42.050;21.516;2024-02-21T00:40:06;16.67;;;9.40;;
80195;SDS011;69516;42.050;21.516;2024-02-21T00:42:32;16.13;;;8.93;;
80195;SDS011;69516;42.050;21.516;2024-02-21T00:44:58;16.58;;;9.70;;
80195;SDS011;69516;42.050;21.516;2024-02-21T00:47:24;15.88;;;9.15;;
80195;SDS011;69516;42.050;21.516;2024-02-21T00:49:51;16.40;;;8.88;;
80195;SDS011;69516;42.050;21.516;2024-02-21T00:52:17;15.48;;;9.25;;
80195;SDS011;69516;42.050;21.516;2024-02-21T00:54:43;15.18;;;8.57;;
80195;SDS011;69516;42.050;21.516;2024-02-21T00:57:09;15.07;;;8.48;;
80195;SDS011;69516;42.050;21.516;2024-02-21T00:59:36;17.45;;;9.23;;
80195;SDS011;69516;42.050;21.516;2024-02-21T01:02:02;16.98;;;8.90;;
80195;SDS011;69516;42.050;21.516;2024-02-21T01:04:28;15.15;;;8.05;;
80195;SDS011;69516;42.050;21.516;2024-02-21T01:06:54;16.13;;;8.10;;
80195;SDS011;69516;42.050;21.516;2024-02-21T01:09:20;14.38;;;7.40;;
80195;SDS011;69516;42.050;21.516;2024-02-21T01:11:46;13.85;;;7.80;;
80195;SDS011;69516;42.050;21.516;2024-02-21T01:14:12;13.63;;;8.13;;
80195;SDS011;69516;42.050;21.516;2024-02-21T01:16:38;15.63;;;8.85;;
80195;SDS011;69516;42.050;21.516;2024-02-21T01:19:04;14.68;;;8.35;;
80195;SDS011;69516;42.050;21.516;2024-02-21T01:21:30;15.75;;;8.32;;
80195;SDS011;69516;42.050;21.516;2024-02-21T01:23:57;17.63;;;9.55;;
80195;SDS011;69516;42.050;21.516;2024-02-21T01:26:23;16.63;;;8.32;;
80195;SDS011;69516;42.050;21.516;2024-02-21T01:28:49;16.60;;;8.45;;
80195;SDS011;69516;42.050;21.516;2024-02-21T01:31:15;15.48;;;8.60;;
80195;SDS011;69516;42.050;21.516;2024-02-21T01:33:41;14.88;;;7.60;;
80195;SDS011;69516;42.050;21.516;2024-02-21T01:36:07;13.93;;;7.68;;
80195;SDS011;69516;42.050;21.516;2024-02-21T01:38:34;17.17;;;9.43;;
80195;SDS011;69516;42.050;21.516;2024-02-21T01:41:00;13.82;;;7.78;;
80195;SDS011;69516;42.050;21.516;2024-02-21T01:43:27;14.80;;;8.40;;
80195;SDS011;69516;42.050;21.516;2024-02-21T01:45:54;14.73;;;8.25;;
80195;SDS011;69516;42.050;21.516;2024-02-21T01:48:24;15.30;;;7.97;;
80195;SDS011;69516;42.050;21.516;2024-02-21T01:50:50;15.48;;;7.28;;
80195;SDS011;69516;42.050;21.516;2024-02-21T01:53:18;12.18;;;7.07;;
80195;SDS011;69516;42.050;21.516;2024-02-21T01:55:45;14.02;;;7.75;;
80195;SDS011;69516;42.050;21.516;2024-02-21T01:58:14;12.73;;;7.18;;
80195;SDS011;69516;42.050;21.516;2024-02-21T02:00:41;14.93;;;7.68;;
80195;SDS011;69516;42.050;21.516;2024-02-21T02:03:11;14.20;;;7.75;;
80195;SDS011;69516;42.050;21.516;2024-02-21T02:08:10;12.00;;;7.03;;
80195;SDS011;69516;42.050;21.516;2024-02-21T02:10:36;13.30;;;7.22;;
80195;SDS011;69516;42.050;21.516;2024-02-21T02:13:03;14.27;;;7.13;;
80195;SDS011;69516;42.050;21.516;2024-02-21T02:15:37;13.73;;;7.75;;
80195;SDS011;69516;42.050;21.516;2024-02-21T02:18:03;13.05;;;7.38;;
80195;SDS011;69516;42.050;21.516;2024-02-21T02:20:30;12.57;;;6.88;;
80195;SDS011;69516;42.050;21.516;2024-02-21T02:22:56;13.55;;;7.20;;
80195;SDS011;69516;42.050;21.516;2024-02-21T02:25:22;16.88;;;7.70;;
80195;SDS011;69516;42.050;21.516;2024-02-21T02:27:49;13.68;;;7.38;;
80195;SDS011;69516;42.050;21.516;2024-02-21T02:30:15;13.52;;;7.32;;
80195;SDS011;69516;42.050;21.516;2024-02-21T02:32:50;13.02;;;7.40;;
80195;SDS011;69516;42.050;21.516;2024-02-21T02:35:16;14.82;;;8.18;;
80195;SDS011;69516;42.050;21.516;2024-02-21T02:37:49;14.60;;;8.23;;
80195;SDS011;69516;42.050;21.516;2024-02-21T02:40:15;16.42;;;8.35;;
80195;SDS011;69516;42.050;21.516;2024-02-21T02:42:41;15.18;;;8.73;;
80195;SDS011;69516;42.050;21.516;2024-02-21T02:45:08;15.55;;;8.30;;
80195;SDS011;69516;42.050;21.516;2024-02-21T02:47:35;14.63;;;8.38;;
80195;SDS011;69516;42.050;21.516;2024-02-21T02:50:01;14.35;;;7.63;;
80195;SDS011;69516;42.050;21.516;2024-02-21T02:52:27;14.77;;;7.82;;
80195;SDS011;69516;42.050;21.516;2024-02-21T02:54:53;14.48;;;7.97;;
80195;SDS011;69516;42.050;21.516;2024-02-21T02:57:21;13.40;;;7.05;;
80195;SDS011;69516;42.050;21.516;2024-02-21T02:59:48;18.05;;;8.73;;
80195;SDS011;69516;42.050;21.516;2024-02-21T03:02:14;14.48;;;7.78;;
80195;SDS011;69516;42.050;21.516;2024-02-21T03:04:40;15.77;;;8.00;;
80195;SDS011;69516;42.050;21.516;2024-02-21T03:07:06;16.35;;;8.48;;
80195;SDS011;69516;42.050;21.516;2024-02-21T03:09:33;15.85;;;8.10;;
80195;SDS011;69516;42.050;21.516;2024-02-21T03:11:59;13.45;;;7.65;;
80195;SDS011;69516;42.050;21.516;2024-02-21T03:14:31;14.10;;;7.55;;
80195;SDS011;69516;42.050;21.516;2024-02-21T03:17:00;15.35;;;7.72;;
80195;SDS011;69516;42.050;21.516;2024-02-21T03:19:27;14.57;;;8.00;;
80195;SDS011;69516;42.050;21.516;2024-02-21T03:21:53;12.50;;;6.85;;
80195;SDS011;69516;42.050;21.516;2024-02-21T03:24:19;14.00;;;7.70;;
80195;SDS011;69516;42.050;21.516;2024-02-21T03:26:46;14.35;;;8.13;;
80195;SDS011;69516;42.050;21.516;2024-02-21T03:29:16;14.45;;;7.43;;
80195;SDS011;69516;42.050;21.516;2024-02-21T03:31:42;13.88;;;7.38;;
80195;SDS011;69516;42.050;21.516;2024-02-21T03:34:12;13.52;;;7.45;;
80195;SDS011;69516;42.050;21.516;2024-02-21T03:36:38;13.02;;;7.55;;
80195;SDS011;69516;42.050;21.516;2024-02-21T03:39:04;14.65;;;7.82;;
80195;SDS011;69516;42.050;21.516;2024-02-21T03:41:30;14.18;;;7.22;;
80195;SDS011;69516;42.050;21.516;2024-02-21T03:43:56;13.85;;;7.22;;
80195;SDS011;69516;42.050;21.516;2024-02-21T03:46:23;12.63;;;6.50;;
80195;SDS011;69516;42.050;21.516;2024-02-21T03:48:50;16.55;;;7.93;;
80195;SDS011;69516;42.050;21.516;2024-02-21T03:51:16;13.57;;;7.72;;
80195;SDS011;69516;42.050;21.516;2024-02-21T03:53:42;14.60;;;8.18;;
80195;SDS011;69516;42.050;21.516;2024-02-21T03:56:08;13.77;;;6.95;;
80195;SDS011;69516;42.050;21.516;2024-02-21T03:58:34;13.68;;;7.45;;
80195;SDS011;69516;42.050;21.516;2024-02-21T04:01:01;13.07;;;7.50;;
80195;SDS011;69516;42.050;21.516;2024-02-21T04:03:27;14.63;;;7.55;;
80195;SDS011;69516;42.050;21.516;2024-02-21T04:05:53;16.17;;;7.93;;
80195;SDS011;69516;42.050;21.516;2024-02-21T04:08:19;13.45;;;7.68;;
80195;SDS011;69516;42.050;21.516;2024-02-21T04:10:46;15.07;;;7.80;;
80195;SDS011;69516;42.050;21.516;2024-02-21T04:13:12;10.60;;;6.03;;
80195;SDS011;69516;42.050;21.516;2024-02-21T04:15:39;11.95;;;6.30;;
80195;SDS011;69516;42.050;21.516;2024-02-21T04:18:05;14.13;;;6.03;;
80195;SDS011;69516;42.050;21.516;2024-02-21T04:20:31;12.73;;;6.60;;
80195;SDS011;69516;42.050;21.516;2024-02-21T04:22:57;14.88;;;7.00;;
80195;SDS011;69516;42.050;21.516;2024-02-21T04:25:24;14.00;;;6.72;;
80195;SDS011;69516;42.050;21.516;2024-02-21T04:27:50;14.57;;;6.53;;
80195;SDS011;69516;42.050;21.516;2024-02-21T04:30:16;13.60;;;7.65;;
80195;SDS011;69516;42.050;21.516;2024-02-21T04:32:42;13.57;;;6.85;;
80195;SDS011;69516;42.050;21.516;2024-02-21T04:35:08;11.82;;;6.63;;
80195;SDS011;69516;42.050;21.516;2024-02-21T04:37:35;15.57;;;7.50;;
80195;SDS011;69516;42.050;21.516;2024-02-21T04:40:01;15.13;;;7.05;;
80195;SDS011;69516;42.050;21.516;2024-02-21T04:42:27;12.68;;;6.93;;
80195;SDS011;69516;42.050;21.516;2024-02-21T04:44:53;12.98;;;6.60;;
80195;SDS011;69516;42.050;21.516;2024-02-21T04:47:19;13.63;;;7.40;;
80195;SDS011;69516;42.050;21.516;2024-02-21T04:49:46;13.05;;;6.45;;
80195;SDS011;69516;42.050;21.516;2024-02-21T04:52:12;14.27;;;7.03;;
80195;SDS011;69516;42.050;21.516;2024-02-21T04:54:38;14.88;;;7.93;;
80195;SDS011;69516;42.050;21.516;2024-02-21T04:57:05;15.23;;;8.10;;
80195;SDS011;69516;42.050;21.516;2024-02-21T04:59:31;14.05;;;7.63;;
80195;SDS011;69516;42.050;21.516;2024-02-21T05:01:58;15.82;;;8.05;;
80195;SDS011;69516;42.050;21.516;2024-02-21T05:04:24;14.73;;;8.02;;
80195;SDS011;69516;42.050;21.516;2024-02-21T05:06:50;15.63;;;8.23;;
80195;SDS011;69516;42.050;21.516;2024-02-21T05:09:16;21.17;;;11.25;;
80195;SDS011;69516;42.050;21.516;2024-02-21T05:11:42;18.95;;;10.70;;
80195;SDS011;69516;42.050;21.516;2024-02-21T05:14:08;16.75;;;9.63;;
80195;SDS011;69516;42.050;21.516;2024-02-21T05:16:34;18.33;;;9.88;;
80195;SDS011;69516;42.050;21.516;2024-02-21T05:19:01;18.63;;;10.45;;
80195;SDS011;69516;42.050;21.516;2024-02-21T05:21:28;17.50;;;9.32;;
80195;SDS011;69516;42.050;21.516;2024-02-21T05:23:54;20.42;;;9.60;;
80195;SDS011;69516;42.050;21.516;2024-02-21T05:26:21;19.02;;;10.00;;
80195;SDS011;69516;42.050;21.516;2024-02-21T05:28:47;16.90;;;9.68;;
80195;SDS011;69516;42.050;21.516;2024-02-21T05:31:15;20.48;;;10.40;;
80195;SDS011;69516;42.050;21.516;2024-02-21T05:33:42;19.98;;;10.07;;
80195;SDS011;69516;42.050;21.516;2024-02-21T05:36:08;19.27;;;9.85;;
80195;SDS011;69516;42.050;21.516;2024-02-21T05:38:34;21.25;;;11.00;;
80195;SDS011;69516;42.050;21.516;2024-02-21T05:41:00;22.50;;;11.57;;
80195;SDS011;69516;42.050;21.516;2024-02-21T05:43:27;19.77;;;11.48;;
80195;SDS011;69516;42.050;21.516;2024-02-21T05:45:53;21.23;;;11.13;;
80195;SDS011;69516;42.050;21.516;2024-02-21T05:48:20;21.95;;;10.45;;
80195;SDS011;69516;42.050;21.516;2024-02-21T05:50:46;22.42;;;12.38;;
80195;SDS011;69516;42.050;21.516;2024-02-21T05:53:12;22.67;;;10.52;;
80195;SDS011;69516;42.050;21.516;2024-02-21T05:55:38;18.35;;;9.27;;
80195;SDS011;69516;42.050;21.516;2024-02-21T05:58:05;15.82;;;8.93;;
80195;SDS011;69516;42.050;21.516;2024-02-21T06:00:31;18.33;;;10.35;;
80195;SDS011;69516;42.050;21.516;2024-02-21T06:02:57;22.88;;;9.65;;
80195;SDS011;69516;42.050;21.516;2024-02-21T06:05:24;19.13;;;9.70;;
80195;SDS011;69516;42.050;21.516;2024-02-21T06:07:50;18.85;;;9.45;;
80195;SDS011;69516;42.050;21.516;2024-02-21T06:10:16;17.75;;;9.75;;
80195;SDS011;69516;42.050;21.516;2024-02-21T06:12:42;18.33;;;9.82;;
80195;SDS011;69516;42.050;21.516;2024-02-21T06:15:08;30.83;;;17.23;;
80195;SDS011;69516;42.050;21.516;2024-02-21T06:17:34;25.13;;;13.13;;
80195;SDS011;69516;42.050;21.516;2024-02-21T06:20:01;26.75;;;14.32;;
80195;SDS011;69516;42.050;21.516;2024-02-21T06:22:27;26.52;;;12.82;;
80195;SDS011;69516;42.050;21.516;2024-02-21T06:24:53;27.73;;;13.23;;
80195;SDS011;69516;42.050;21.516;2024-02-21T06:27:19;29.75;;;14.50;;
80195;SDS011;69516;42.050;21.516;2024-02-21T06:29:45;31.83;;;15.00;;
80195;SDS011;69516;42.050;21.516;2024-02-21T06:32:12;42.35;;;19.13;;
80195;SDS011;69516;42.050;21.516;2024-02-21T06:34:38;40.70;;;17.63;;
80195;SDS011;69516;42.050;21.516;2024-02-21T06:37:04;42.83;;;19.75;;
80195;SDS011;69516;42.050;21.516;2024-02-21T06:39:31;41.15;;;19.20;;
80195;SDS011;69516;42.050;21.516;2024-02-21T06:41:57;41.40;;;18.38;;
80195;SDS011;69516;42.050;21.516;2024-02-21T06:44:23;42.55;;;21.25;;
80195;SDS011;69516;42.050;21.516;2024-02-21T06:46:49;46.35;;;20.40;;
80195;SDS011;69516;42.050;21.516;2024-02-21T06:49:15;44.72;;;25.30;;
80195;SDS011;69516;42.050;21.516;2024-02-21T06:51:42;43.05;;;22.27;;
80195;SDS011;69516;42.050;21.516;2024-02-21T06:54:08;41.25;;;19.63;;
80195;SDS011;69516;42.050;21.516;2024-02-21T06:56:35;30.10;;;14.98;;
80195;SDS011;69516;42.050;21.516;2024-02-21T06:59:02;24.10;;;12.77;;
80195;SDS011;69516;42.050;21.516;2024-02-21T07:01:29;23.23;;;10.52;;
80195;SDS011;69516;42.050;21.516;2024-02-21T07:03:55;18.35;;;10.80;;
80195;SDS011;69516;42.050;21.516;2024-02-21T07:06:22;17.13;;;10.27;;
80195;SDS011;69516;42.050;21.516;2024-02-21T07:08:51;27.20;;;14.00;;
80195;SDS011;69516;42.050;21.516;2024-02-21T07:11:17;36.63;;;18.67;;
80195;SDS011;69516;42.050;21.516;2024-02-21T07:13:43;42.50;;;21.70;;
80195;SDS011;69516;42.050;21.516;2024-02-21T07:16:09;46.15;;;22.13;;
80195;SDS011;69516;42.050;21.516;2024-02-21T07:18:36;34.25;;;17.65;;
80195;SDS011;69516;42.050;21.516;2024-02-21T07:21:02;21.45;;;12.48;;
80195;SDS011;69516;42.050;21.516;2024-02-21T07:23:28;17.85;;;10.10;;
80195;SDS011;69516;42.050;21.516;2024-02-21T07:25:55;17.25;;;9.90;;
80195;SDS011;69516;42.050;21.516;2024-02-21T07:28:21;17.20;;;9.82;;
80195;SDS011;69516;42.050;21.516;2024-02-21T07:30:47;29.02;;;16.13;;
80195;SDS011;69516;42.050;21.516;2024-02-21T07:33:13;26.30;;;16.20;;
80195;SDS011;69516;42.050;21.516;2024-02-21T07:35:39;26.02;;;14.15;;
80195;SDS011;69516;42.050;21.516;2024-02-21T07:38:07;26.98;;;14.68;;
80195;SDS011;69516;42.050;21.516;2024-02-21T07:40:37;28.45;;;15.25;;
80195;SDS011;69516;42.050;21.516;2024-02-21T07:43:04;28.02;;;16.13;;
80195;SDS011;69516;42.050;21.516;2024-02-21T07:45:30;26.80;;;14.98;;
80195;SDS011;69516;42.050;21.516;2024-02-21T07:48:02;26.83;;;16.60;;
80195;SDS011;69516;42.050;21.516;2024-02-21T07:50:28;30.70;;;17.48;;
80195;SDS011;69516;42.050;21.516;2024-02-21T07:52:54;30.15;;;16.35;;
80195;SDS011;69516;42.050;21.516;2024-02-21T07:55:20;26.23;;;15.48;;
80195;SDS011;69516;42.050;21.516;2024-02-21T07:57:47;24.63;;;14.70;;
80195;SDS011;69516;42.050;21.516;2024-02-21T08:00:13;28.45;;;16.33;;
80195;SDS011;69516;42.050;21.516;2024-02-21T08:02:45;29.67;;;17.77;;
80195;SDS011;69516;42.050;21.516;2024-02-21T08:05:11;25.17;;;14.50;;
80195;SDS011;69516;42.050;21.516;2024-02-21T08:07:38;27.95;;;15.93;;
80195;SDS011;69516;42.050;21.516;2024-02-21T08:10:04;30.42;;;17.25;;
80195;SDS011;69516;42.050;21.516;2024-02-21T08:12:34;28.52;;;15.77;;
80195;SDS011;69516;42.050;21.516;2024-02-21T08:15:01;33.00;;;17.20;;
80195;SDS011;69516;42.050;21.516;2024-02-21T08:17:32;29.27;;;16.70;;
80195;SDS011;69516;42.050;21.516;2024-02-21T08:19:59;31.10;;;17.40;;
80195;SDS011;69516;42.050;21.516;2024-02-21T08:22:25;29.88;;;17.23;;
80195;SDS011;69516;42.050;21.516;2024-02-21T08:24:51;26.35;;;15.65;;
80195;SDS011;69516;42.050;21.516;2024-02-21T08:27:18;26.35;;;14.20;;
80195;SDS011;69516;42.050;21.516;2024-02-21T08:29:44;21.42;;;12.90;;
80195;SDS011;69516;42.050;21.516;2024-02-21T08:32:10;25.35;;;14.77;;
80195;SDS011;69516;42.050;21.516;2024-02-21T08:34:36;26.20;;;14.73;;
80195;SDS011;69516;42.050;21.516;2024-02-21T08:37:03;26.35;;;14.40;;
80195;SDS011;69516;42.050;21.516;2024-02-21T08:39:29;23.02;;;13.02;;
80195;SDS011;69516;42.050;21.516;2024-02-21T08:41:56;20.13;;;11.77;;
80195;SDS011;69516;42.050;21.516;2024-02-21T08:44:23;22.40;;;12.20;;
80195;SDS011;69516;42.050;21.516;2024-02-21T08:46:52;21.02;;;12.85;;
80195;SDS011;69516;42.050;21.516;2024-02-21T08:49:18;24.58;;;13.32;;
80195;SDS011;69516;42.050;21.516;2024-02-21T08:51:44;22.23;;;13.30;;
80195;SDS011;69516;42.050;21.516;2024-02-21T08:54:11;19.85;;;12.85;;
80195;SDS011;69516;42.050;21.516;2024-02-21T08:56:37;21.42;;;13.57;;
80195;SDS011;69516;42.050;21.516;2024-02-21T08:59:09;19.80;;;12.60;;
80195;SDS011;69516;42.050;21.516;2024-02-21T09:01:42;24.25;;;12.70;;
80195;SDS011;69516;42.050;21.516;2024-02-21T09:04:08;21.80;;;13.10;;
80195;SDS011;69516;42.050;21.516;2024-02-21T09:06:35;18.90;;;12.00;;
80195;SDS011;69516;42.050;21.516;2024-02-21T09:09:04;18.58;;;12.25;;
80195;SDS011;69516;42.050;21.516;2024-02-21T09:11:30;17.02;;;10.77;;
80195;SDS011;69516;42.050;21.516;2024-02-21T09:13:56;18.98;;;10.10;;
80195;SDS011;69516;42.050;21.516;2024-02-21T09:16:22;17.50;;;9.70;;
80195;SDS011;69516;42.050;21.516;2024-02-21T09:18:48;15.88;;;8.57;;
80195;SDS011;69516;42.050;21.516;2024-02-21T09:21:15;13.35;;;8.60;;
80195;SDS011;69516;42.050;21.516;2024-02-21T09:23:41;14.93;;;8.77;;
80195;SDS011;69516;42.050;21.516;2024-02-21T09:26:07;15.57;;;8.52;;
80195;SDS011;69516;42.050;21.516;2024-02-21T09:28:35;13.90;;;7.90;;
80195;SDS011;69516;42.050;21.516;2024-02-21T09:31:01;16.92;;;9.88;;
80195;SDS011;69516;42.050;21.516;2024-02-21T09:33:27;16.73;;;9.70;;
80195;SDS011;69516;42.050;21.516;2024-02-21T09:35:57;14.55;;;8.55;;
80195;SDS011;69516;42.050;21.516;2024-02-21T09:38:23;13.15;;;8.43;;
80195;SDS011;69516;42.050;21.516;2024-02-21T09:40:59;14.15;;;8.15;;
80195;SDS011;69516;42.050;21.516;2024-02-21T09:43:26;13.10;;;7.55;;
80195;SDS011;69516;42.050;21.516;2024-02-21T09:45:52;12.57;;;7.38;;
80195;SDS011;69516;42.050;21.516;2024-02-21T09:50:52;11.13;;;7.00;;
80195;SDS011;69516;42.050;21.516;2024-02-21T09:53:19;11.90;;;7.22;;
80195;SDS011;69516;42.050;21.516;2024-02-21T09:55:45;11.38;;;6.35;;
80195;SDS011;69516;42.050;21.516;2024-02-21T09:58:12;11.77;;;5.97;;
80195;SDS011;69516;42.050;21.516;2024-02-21T10:00:38;12.18;;;5.97;;
80195;SDS011;69516;42.050;21.516;2024-02-21T10:03:04;11.18;;;5.43;;
80195;SDS011;69516;42.050;21.516;2024-02-21T10:05:33;12.82;;;6.47;;
80195;SDS011;69516;42.050;21.516;2024-02-21T10:08:00;16.17;;;6.72;;
80195;SDS011;69516;42.050;21.516;2024-02-21T10:10:26;12.48;;;6.30;;
80195;SDS011;69516;42.050;21.516;2024-02-21T10:12:54;10.40;;;6.15;;
80195;SDS011;69516;42.050;21.516;2024-02-21T10:15:21;11.75;;;6.95;;
80195;SDS011;69516;42.050;21.516;2024-02-21T10:17:48;12.82;;;8.07;;
80195;SDS011;69516;42.050;21.516;2024-02-21T10:20:15;11.38;;;6.25;;
80195;SDS011;69516;42.050;21.516;2024-02-21T10:22:42;11.50;;;6.45;;
80195;SDS011;69516;42.050;21.516;2024-02-21T10:25:09;13.57;;;6.97;;
80195;SDS011;69516;42.050;21.516;2024-02-21T10:27:36;12.25;;;6.47;;
80195;SDS011;69516;42.050;21.516;2024-02-21T10:30:03;12.98;;;6.57;;
80195;SDS011;69516;42.050;21.516;2024-02-21T10:32:30;29.27;;;20.23;;
80195;SDS011;69516;42.050;21.516;2024-02-21T10:35:03;12.52;;;6.43;;
80195;SDS011;69516;42.050;21.516;2024-02-21T10:37:42;10.27;;;5.85;;
80195;SDS011;69516;42.050;21.516;2024-02-21T10:40:28;11.50;;;5.60;;
80195;SDS011;69516;42.050;21.516;2024-02-21T10:42:56;11.80;;;6.15;;
80195;SDS011;69516;42.050;21.516;2024-02-21T10:45:30;11.98;;;5.90;;
80195;SDS011;69516;42.050;21.516;2024-02-21T10:48:01;12.27;;;5.45;;
80195;SDS011;69516;42.050;21.516;2024-02-21T10:51:02;12.88;;;5.75;;
80195;SDS011;69516;42.050;21.516;2024-02-21T10:53:32;11.65;;;5.75;;
80195;SDS011;69516;42.050;21.516;2024-02-21T10:56:05;10.63;;;6.07;;
80195;SDS011;69516;42.050;21.516;2024-02-21T10:58:33;11.63;;;5.20;;
80195;SDS011;69516;42.050;21.516;2024-02-21T11:01:08;12.05;;;5.72;;
80195;SDS011;69516;42.050;21.516;2024-02-21T11:03:34;11.35;;;5.63;;
80195;SDS011;69516;42.050;21.516;2024-02-21T11:09:09;8.95;;;4.57;;
80195;SDS011;69516;42.050;21.516;2024-02-21T11:11:37;9.68;;;4.88;;
80195;SDS011;69516;42.050;21.516;2024-02-21T11:14:08;11.05;;;5.93;;
80195;SDS011;69516;42.050;21.516;2024-02-21T11:16:35;9.13;;;5.13;;
80195;SDS011;69516;42.050;21.516;2024-02-21T11:19:07;12.70;;;5.57;;
80195;SDS011;69516;42.050;21.516;2024-02-21T11:21:38;13.63;;;5.88;;
80195;SDS011;69516;42.050;21.516;2024-02-21T11:26:39;13.20;;;5.45;;
80195;SDS011;69516;42.050;21.516;2024-02-21T11:29:09;12.73;;;5.00;;
80195;SDS011;69516;42.050;21.516;2024-02-21T11:31:39;12.90;;;5.80;;
80195;SDS011;69516;42.050;21.516;2024-02-21T11:34:11;12.13;;;5.43;;
80195;SDS011;69516;42.050;21.516;2024-02-21T11:36:50;10.27;;;5.55;;
80195;SDS011;69516;42.050;21.516;2024-02-21T11:39:31;16.10;;;6.32;;
80195;SDS011;69516;42.050;21.516;2024-02-21T11:42:04;10.65;;;4.75;;
80195;SDS011;69516;42.050;21.516;2024-02-21T11:47:36;14.20;;;6.85;;
80195;SDS011;69516;42.050;21.516;2024-02-21T11:50:12;12.38;;;5.00;;
80195;SDS011;69516;42.050;21.516;2024-02-21T11:52:41;13.48;;;4.75;;
80195;SDS011;69516;42.050;21.516;2024-02-21T11:55:19;13.38;;;5.30;;
80195;SDS011;69516;42.050;21.516;2024-02-21T11:57:52;15.20;;;5.25;;
80195;SDS011;69516;42.050;21.516;2024-02-21T12:00:19;15.25;;;5.75;;
80195;SDS011;69516;42.050;21.516;2024-02-21T12:02:54;10.10;;;5.07;;
80195;SDS011;69516;42.050;21.516;2024-02-21T12:05:27;10.15;;;5.05;;
80195;SDS011;69516;42.050;21.516;2024-02-21T12:07:54;11.05;;;5.70;;
80195;SDS011;69516;42.050;21.516;2024-02-21T12:10:23;10.00;;;5.53;;
80195;SDS011;69516;42.050;21.516;2024-02-21T12:12:50;11.60;;;5.53;;
80195;SDS011;69516;42.050;21.516;2024-02-21T12:15:20;11.30;;;5.25;;
80195;SDS011;69516;42.050;21.516;2024-02-21T12:17:47;10.75;;;5.68;;
80195;SDS011;69516;42.050;21.516;2024-02-21T12:20:17;16.33;;;6.85;;
80195;SDS011;69516;42.050;21.516;2024-02-21T12:22:45;13.40;;;6.25;;
80195;SDS011;69516;42.050;21.516;2024-02-21T12:25:18;12.65;;;5.90;;
80195;SDS011;69516;42.050;21.516;2024-02-21T12:27:45;10.52;;;5.32;;
80195;SDS011;69516;42.050;21.516;2024-02-21T12:30:12;14.98;;;7.20;;
80195;SDS011;69516;42.050;21.516;2024-02-21T12:32:39;14.00;;;5.78;;
80195;SDS011;69516;42.050;21.516;2024-02-21T12:35:06;11.65;;;5.65;;
80195;SDS011;69516;42.050;21.516;2024-02-21T12:40:37;12.65;;;6.57;;
80195;SDS011;69516;42.050;21.516;2024-02-21T12:43:03;10.50;;;6.05;;
80195;SDS011;69516;42.050;21.516;2024-02-21T12:45:29;11.93;;;7.05;;
80195;SDS011;69516;42.050;21.516;2024-02-21T12:47:56;14.13;;;6.93;;
80195;SDS011;69516;42.050;21.516;2024-02-21T12:50:23;13.02;;;6.15;;
80195;SDS011;69516;42.050;21.516;2024-02-21T12:52:49;10.70;;;5.88;;
80195;SDS011;69516;42.050;21.516;2024-02-21T12:55:17;10.82;;;5.95;;
80195;SDS011;69516;42.050;21.516;2024-02-21T12:57:44;9.27;;;4.95;;
80195;SDS011;69516;42.050;21.516;2024-02-21T13:00:10;11.90;;;6.43;;
80195;SDS011;69516;42.050;21.516;2024-02-21T13:02:36;11.88;;;6.45;;
80195;SDS011;69516;42.050;21.516;2024-02-21T13:05:03;12.23;;;6.28;;
80195;SDS011;69516;42.050;21.516;2024-02-21T13:07:30;11.82;;;6.65;;
80195;SDS011;69516;42.050;21.516;2024-02-21T13:09:57;10.60;;;5.88;;
80195;SDS011;69516;42.050;21.516;2024-02-21T13:12:24;13.77;;;5.43;;
80195;SDS011;69516;42.050;21.516;2024-02-21T13:14:52;11.73;;;6.63;;
80195;SDS011;69516;42.050;21.516;2024-02-21T13:17:19;11.43;;;6.45;;
80195;SDS011;69516;42.050;21.516;2024-02-21T13:19:47;11.38;;;6.03;;
80195;SDS011;69516;42.050;21.516;2024-02-21T13:22:14;11.07;;;6.90;;
80195;SDS011;69516;42.050;21.516;2024-02-21T13:24:41;10.07;;;5.85;;
80195;SDS011;69516;42.050;21.516;2024-02-21T13:27:07;10.75;;;5.60;;
80195;SDS011;69516;42.050;21.516;2024-02-21T13:29:34;11.02;;;5.60;;
80195;SDS011;69516;42.050;21.516;2024-02-21T13:32:00;12.35;;;5.30;;
80195;SDS011;69516;42.050;21.516;2024-02-21T13:34:27;13.43;;;4.95;;
80195;SDS011;69516;42.050;21.516;2024-02-21T13:36:53;10.57;;;5.00;;
80195;SDS011;69516;42.050;21.516;2024-02-21T13:39:19;12.60;;;5.18;;
80195;SDS011;69516;42.050;21.516;2024-02-21T13:41:46;8.85;;;4.60;;
80195;SDS011;69516;42.050;21.516;2024-02-21T13:44:12;12.13;;;5.03;;
80195;SDS011;69516;42.050;21.516;2024-02-21T13:46:39;11.32;;;4.90;;
80195;SDS011;69516;42.050;21.516;2024-02-21T13:49:05;8.85;;;4.53;;
80195;SDS011;69516;42.050;21.516;2024-02-21T13:51:35;9.20;;;4.45;;
80195;SDS011;69516;42.050;21.516;2024-02-21T13:54:06;14.05;;;6.43;;
80195;SDS011;69516;42.050;21.516;2024-02-21T13:56:34;16.63;;;7.60;;
80195;SDS011;69516;42.050;21.516;2024-02-21T13:59:01;10.27;;;5.72;;
80195;SDS011;69516;42.050;21.516;2024-02-21T14:01:27;14.82;;;7.10;;
80195;SDS011;69516;42.050;21.516;2024-02-21T14:03:54;14.20;;;6.97;;
80195;SDS011;69516;42.050;21.516;2024-02-21T14:06:20;10.60;;;5.70;;
80195;SDS011;69516;42.050;21.516;2024-02-21T14:08:47;13.43;;;6.18;;
80195;SDS011;69516;42.050;21.516;2024-02-21T14:11:13;11.15;;;5.25;;
80195;SDS011;69516;42.050;21.516;2024-02-21T14:13:39;13.38;;;5.60;;
80195;SDS011;69516;42.050;21.516;2024-02-21T14:16:09;15.27;;;7.18;;
80195;SDS011;69516;42.050;21.516;2024-02-21T14:18:41;12.05;;;6.47;;
80195;SDS011;69516;42.050;21.516;2024-02-21T14:21:08;13.50;;;5.80;;
80195;SDS011;69516;42.050;21.516;2024-02-21T14:23:37;9.00;;;4.55;;
80195;SDS011;69516;42.050;21.516;2024-02-21T14:26:04;12.07;;;5.72;;
80195;SDS011;69516;42.050;21.516;2024-02-21T14:28:31;9.70;;;4.80;;
80195;SDS011;69516;42.050;21.516;2024-02-21T14:31:00;10.52;;;4.75;;
80195;SDS011;69516;42.050;21.516;2024-02-21T14:33:28;9.98;;;4.72;;
80195;SDS011;69516;42.050;21.516;2024-02-21T14:35:57;9.13;;;5.50;;